createdAt,value
2018-04-13T00:01:02.186Z,61.00
2018-04-13T00:03:28.424Z,61.00
2018-04-13T00:05:54.701Z,61.00
2018-04-13T00:08:21.618Z,61.60
2018-04-13T00:10:48.118Z,61.50
2018-04-13T00:13:14.294Z,61.70
2018-04-13T00:15:40.457Z,62.00
2018-04-13T00:18:07.397Z,62.50
2018-04-13T00:20:34.352Z,62.90
2018-04-13T00:23:01.286Z,63.00
2018-04-13T00:25:27.461Z,62.90
2018-04-13T00:27:53.628Z,63.20
2018-04-13T00:30:19.829Z,63.20
2018-04-13T00:32:46.009Z,63.30
2018-04-13T00:35:12.189Z,63.50
2018-04-13T00:37:38.381Z,63.70
2018-04-13T00:40:04.553Z,63.60
2018-04-13T00:42:30.746Z,63.60
2018-04-13T00:44:57.674Z,63.60
2018-04-13T00:47:23.858Z,63.60
2018-04-13T00:49:50.778Z,64.10
2018-04-13T00:52:16.949Z,64.10
2018-04-13T00:54:43.149Z,64.20
2018-04-13T00:57:09.333Z,64.00
2018-04-13T00:59:35.506Z,64.20
2018-04-13T01:02:01.702Z,64.40
2018-04-13T01:04:27.888Z,64.60
2018-04-13T01:06:54.825Z,64.40
2018-04-13T01:09:21.028Z,64.40
2018-04-13T01:11:47.229Z,64.40
2018-04-13T01:14:13.422Z,64.30
2018-04-13T01:16:39.609Z,64.50
2018-04-13T01:19:05.805Z,64.70
2018-04-13T01:21:32.738Z,65.00
2018-04-13T01:23:58.922Z,65.00
2018-04-13T01:26:25.114Z,65.00
2018-04-13T01:28:51.305Z,65.00
2018-04-13T01:31:17.494Z,65.00
2018-04-13T01:33:44.414Z,65.20
2018-04-13T01:36:10.598Z,65.00
2018-04-13T01:38:37.513Z,65.30
2018-04-13T01:41:04.449Z,66.10
2018-04-13T01:43:30.651Z,65.50
2018-04-13T01:45:56.970Z,65.50
2018-04-13T01:48:23.144Z,65.60
2018-04-13T01:50:49.333Z,65.60
2018-04-13T01:53:15.510Z,65.70
2018-04-13T01:55:41.701Z,65.60
2018-04-13T01:58:07.869Z,65.70
2018-04-13T02:00:34.057Z,65.90
2018-04-13T02:03:00.241Z,66.00
2018-04-13T02:05:26.408Z,65.90
2018-04-13T02:07:53.314Z,65.90
2018-04-13T02:10:19.503Z,65.70
2018-04-13T02:12:45.942Z,65.70
2018-04-13T02:15:12.137Z,65.80
2018-04-13T02:17:38.365Z,65.90
2018-04-13T02:20:04.532Z,65.80
2018-04-13T02:22:30.725Z,65.90
2018-04-13T02:24:56.916Z,65.90
2018-04-13T02:27:23.089Z,65.80
2018-04-13T02:29:49.274Z,65.80
2018-04-13T02:32:15.461Z,65.80
2018-04-13T02:34:41.643Z,65.90
2018-04-13T02:37:08.646Z,66.10
2018-04-13T02:39:34.831Z,66.00
2018-04-13T02:42:01.010Z,66.10
2018-04-13T02:44:27.191Z,65.90
2018-04-13T02:46:53.369Z,65.90
2018-04-13T02:49:19.590Z,65.80
2018-04-13T02:51:45.765Z,65.80
2018-04-13T02:54:12.688Z,65.40
2018-04-13T02:56:38.894Z,65.40
2018-04-13T02:59:05.086Z,66.10
2018-04-13T03:01:32.021Z,64.90
2018-04-13T03:03:58.954Z,64.90
2018-04-13T03:06:25.137Z,64.70
2018-04-13T03:08:51.350Z,64.80
2018-04-13T03:11:18.261Z,64.80
2018-04-13T03:13:45.086Z,64.70
2018-04-13T03:16:11.289Z,64.70
2018-04-13T03:18:37.450Z,64.70
2018-04-13T03:21:03.624Z,64.60
2018-04-13T03:23:29.797Z,64.50
2018-04-13T03:25:55.997Z,64.30
2018-04-13T03:28:22.914Z,64.80
2018-04-13T03:30:49.085Z,64.60
2018-04-13T03:33:16.029Z,65.10
2018-04-13T03:35:42.959Z,65.10
2018-04-13T03:38:09.167Z,65.00
2018-04-13T03:40:35.333Z,65.10
2018-04-13T03:43:01.510Z,65.10
2018-04-13T03:45:27.684Z,65.30
2018-04-13T03:47:53.866Z,65.40
2018-04-13T03:50:20.065Z,65.30
2018-04-13T03:52:46.991Z,65.40
2018-04-13T03:55:13.165Z,65.20
2018-04-13T03:57:40.086Z,65.40
2018-04-13T04:00:06.267Z,65.30
2018-04-13T04:02:32.457Z,65.30
2018-04-13T04:04:58.632Z,65.10
2018-04-13T04:07:24.809Z,65.40
2018-04-13T04:09:50.992Z,65.00
2018-04-13T04:12:17.153Z,65.00
2018-04-13T04:14:43.779Z,65.00
2018-04-13T04:17:09.956Z,64.60
2018-04-13T04:19:48.566Z,64.40
2018-04-13T04:22:27.140Z,64.30
2018-04-13T04:25:05.622Z,64.50
2018-04-13T04:27:32.542Z,64.30
2018-04-13T04:29:58.725Z,64.20
2018-04-13T04:32:24.900Z,64.20
2018-04-13T04:34:51.065Z,64.00
2018-04-13T04:37:18.005Z,63.50
2018-04-13T04:39:44.920Z,63.90
2018-04-13T04:42:11.101Z,63.50
2018-04-13T04:44:37.307Z,63.40
2018-04-13T04:47:03.498Z,63.30
2018-04-13T04:49:29.688Z,63.30
2018-04-13T04:51:56.606Z,62.20
2018-04-13T04:54:22.777Z,62.70
2018-04-13T04:56:49.725Z,62.00
2018-04-13T04:59:16.641Z,61.80
2018-04-13T05:01:42.842Z,61.80
2018-04-13T05:04:09.017Z,61.40
2018-04-13T05:06:35.195Z,61.00
2018-04-13T05:09:01.375Z,60.30
2018-04-13T05:11:27.569Z,59.70
2018-04-13T05:13:53.785Z,59.00
2018-04-13T05:16:20.705Z,58.10
2018-04-13T05:18:46.953Z,58.00
2018-04-13T05:21:13.887Z,57.30
2018-04-13T05:23:40.070Z,57.20
2018-04-13T05:26:06.299Z,57.30
2018-04-13T05:28:33.218Z,56.60
2018-04-13T05:31:00.133Z,56.70
2018-04-13T05:33:26.345Z,56.60
2018-04-13T05:35:52.538Z,56.10
2018-04-13T05:38:19.460Z,55.40
2018-04-13T05:40:45.625Z,55.30
2018-04-13T05:43:12.524Z,55.30
2018-04-13T05:45:38.720Z,55.20
2018-04-13T05:48:04.901Z,55.20
2018-04-13T05:50:31.100Z,55.60
2018-04-13T05:52:57.256Z,56.30
2018-04-13T05:55:23.468Z,56.60
2018-04-13T05:57:49.648Z,55.90
2018-04-13T06:00:15.884Z,56.00
2018-04-13T06:02:42.043Z,56.10
2018-04-13T06:05:08.965Z,55.70
2018-04-13T06:07:35.129Z,55.70
2018-04-13T06:10:01.319Z,55.90
2018-04-13T06:12:28.255Z,56.60
2018-04-13T06:14:54.451Z,56.60
2018-04-13T06:17:20.637Z,56.10
2018-04-13T06:19:46.801Z,56.60
2018-04-13T06:22:12.980Z,57.00
2018-04-13T06:24:39.142Z,57.20
2018-04-13T06:27:05.345Z,58.00
2018-04-13T06:29:31.528Z,57.60
2018-04-13T06:31:58.474Z,57.60
2018-04-13T06:34:25.400Z,57.70
2018-04-13T06:36:55.044Z,57.60
2018-04-13T06:39:17.798Z,56.90
2018-04-13T06:41:44.721Z,57.20
2018-04-13T06:44:10.899Z,57.00
2018-04-13T06:46:37.065Z,57.00
2018-04-13T06:49:03.264Z,56.70
2018-04-13T06:51:29.450Z,57.30
2018-04-13T06:53:55.634Z,56.50
2018-04-13T06:56:21.830Z,56.50
2018-04-13T06:58:48.765Z,56.70
2018-04-13T07:01:16.424Z,56.80
2018-04-13T07:03:42.625Z,56.80
2018-04-13T07:06:08.793Z,56.60
2018-04-13T07:08:34.997Z,56.70
2018-04-13T07:11:01.145Z,56.80
2018-04-13T07:13:27.313Z,56.80
2018-04-13T07:15:54.246Z,55.30
2018-04-13T07:18:20.718Z,55.10
2018-04-13T07:20:46.936Z,54.70
2018-04-13T07:23:13.849Z,54.60
2018-04-13T07:25:40.014Z,54.50
2018-04-13T07:28:06.969Z,54.60
2018-04-13T07:30:33.894Z,54.10
2018-04-13T07:33:00.084Z,54.00
2018-04-13T07:35:26.257Z,54.20
2018-04-13T07:37:52.460Z,54.10
2018-04-13T07:40:18.626Z,54.10
2018-04-13T07:42:44.806Z,54.00
2018-04-13T07:45:11.005Z,54.40
2018-04-13T07:47:37.913Z,54.70
2018-04-13T07:50:04.141Z,54.00
2018-04-13T07:52:30.308Z,53.40
2018-04-13T07:54:56.509Z,53.50
2018-04-13T07:57:22.719Z,53.60
2018-04-13T07:59:48.907Z,54.00
2018-04-13T08:02:15.166Z,53.90
2018-04-13T08:04:41.292Z,53.40
2018-04-13T08:07:08.224Z,53.30
2018-04-13T08:09:35.912Z,52.80
2018-04-13T08:12:02.826Z,52.90
2018-04-13T08:14:29.024Z,52.90
2018-04-13T08:16:55.201Z,53.30
2018-04-13T08:19:21.699Z,52.80
2018-04-13T08:21:51.125Z,52.40
2018-04-13T08:24:17.299Z,51.90
2018-04-13T08:26:44.257Z,52.20
2018-04-13T08:29:11.181Z,53.50
2018-04-13T08:31:37.356Z,53.50
2018-04-13T08:34:03.570Z,52.30
2018-04-13T08:36:30.483Z,52.50
2018-04-13T08:38:56.692Z,52.40
2018-04-13T08:41:22.910Z,52.40
2018-04-13T08:43:49.078Z,51.40
2018-04-13T08:46:15.278Z,51.00
2018-04-13T08:48:41.637Z,51.30
2018-04-13T08:51:07.708Z,51.00
2018-04-13T08:53:34.621Z,51.90
2018-04-13T08:56:00.802Z,51.60
2018-04-13T08:58:27.750Z,51.20
2018-04-13T09:00:54.686Z,52.40
2018-04-13T09:03:21.622Z,53.20
2018-04-13T09:05:47.832Z,53.10
2018-04-13T09:08:14.036Z,51.80
2018-04-13T09:10:40.243Z,51.30
2018-04-13T09:13:07.168Z,51.80
2018-04-13T09:15:33.355Z,51.70
2018-04-13T09:17:59.559Z,52.10
2018-04-13T09:20:26.829Z,51.60
2018-04-13T09:22:53.761Z,52.10
2018-04-13T09:25:20.673Z,51.00
2018-04-13T09:27:46.855Z,51.00
2018-04-13T09:30:13.786Z,51.60
2018-04-13T09:32:39.968Z,51.60
2018-04-13T09:35:06.222Z,52.90
2018-04-13T09:37:32.469Z,52.40
2018-04-13T09:39:58.653Z,52.20
2018-04-13T09:42:24.850Z,51.90
2018-04-13T09:44:51.022Z,51.30
2018-04-13T09:47:17.227Z,51.90
2018-04-13T09:49:44.141Z,51.80
2018-04-13T09:52:10.338Z,51.80
2018-04-13T09:54:36.529Z,51.80
2018-04-13T09:57:02.714Z,52.50
2018-04-13T09:59:28.917Z,52.30
2018-04-13T10:01:55.850Z,52.40
2018-04-13T10:04:22.043Z,52.30
2018-04-13T10:06:48.209Z,52.10
2018-04-13T10:09:14.376Z,51.30
2018-04-13T10:11:40.785Z,51.80
2018-04-13T10:14:06.963Z,50.60
2018-04-13T10:16:37.037Z,51.20
2018-04-13T10:19:03.236Z,51.40
2018-04-13T10:21:29.438Z,51.50
2018-04-13T10:23:55.633Z,52.50
2018-04-13T10:26:21.823Z,52.40
2018-04-13T10:28:48.001Z,51.40
2018-04-13T10:31:14.178Z,52.30
2018-04-13T10:33:40.353Z,52.60
2018-04-13T10:36:06.546Z,51.00
2018-04-13T10:38:32.721Z,52.10
2018-04-13T10:40:58.898Z,51.90
2018-04-13T10:43:25.080Z,51.30
2018-04-13T10:45:51.258Z,52.00
2018-04-13T10:48:17.490Z,51.20
2018-04-13T10:50:43.656Z,50.50
2018-04-13T10:53:09.825Z,50.80
2018-04-13T10:55:36.000Z,51.00
2018-04-13T10:58:02.181Z,50.70
2018-04-13T11:00:28.385Z,50.90
2018-04-13T11:02:54.574Z,50.80
2018-04-13T11:05:21.498Z,50.90
2018-04-13T11:07:47.692Z,50.90
2018-04-13T11:10:13.905Z,50.70
2018-04-13T11:12:40.097Z,50.60
2018-04-13T11:15:06.273Z,50.60
2018-04-13T11:17:32.442Z,50.80
2018-04-13T11:19:58.630Z,50.30
2018-04-13T11:22:24.819Z,51.20
2018-04-13T11:24:51.049Z,51.30
2018-04-13T11:27:17.239Z,49.70
2018-04-13T11:29:43.401Z,50.30
2018-04-13T11:32:09.591Z,49.90
2018-04-13T11:34:35.760Z,50.00
2018-04-13T11:37:01.966Z,50.10
2018-04-13T11:39:28.149Z,50.90
2018-04-13T11:41:55.809Z,50.50
2018-04-13T11:44:22.010Z,50.60
2018-04-13T11:46:48.197Z,50.50
2018-04-13T11:49:15.109Z,50.90
2018-04-13T11:51:41.316Z,51.50
2018-04-13T11:54:07.510Z,50.50
2018-04-13T11:56:33.685Z,50.10
2018-04-13T11:58:59.877Z,49.80
2018-04-13T12:01:26.809Z,52.00
2018-04-13T12:03:52.977Z,51.60
2018-04-13T12:06:19.921Z,50.40
2018-04-13T12:08:46.849Z,49.80
2018-04-13T12:11:13.016Z,49.80
2018-04-13T12:13:39.934Z,50.40
2018-04-13T12:16:06.116Z,50.40
2018-04-13T12:18:32.318Z,51.80
2018-04-13T12:20:59.246Z,50.10
2018-04-13T12:23:25.545Z,50.00
2018-04-13T12:25:51.763Z,51.10
2018-04-13T12:28:17.941Z,51.40
2018-04-13T12:30:44.137Z,49.80
2018-04-13T12:33:10.318Z,49.80
2018-04-13T12:35:36.489Z,51.90
2018-04-13T12:38:02.676Z,51.50
2018-04-13T12:40:28.854Z,50.60
2018-04-13T12:42:55.064Z,50.30
2018-04-13T12:45:21.998Z,49.60
2018-04-13T12:47:48.176Z,49.60
2018-04-13T12:50:14.364Z,50.20
2018-04-13T12:52:40.559Z,49.50
2018-04-13T12:55:07.015Z,50.90
2018-04-13T12:57:32.953Z,49.00
2018-04-13T13:00:00.597Z,49.40
2018-04-13T13:02:26.764Z,49.30
2018-04-13T13:04:52.942Z,50.00
2018-04-13T13:07:19.134Z,49.40
2018-04-13T13:09:46.041Z,49.20
2018-04-13T13:12:12.222Z,49.10
2018-04-13T13:14:39.145Z,48.80
2018-04-13T13:17:05.300Z,48.80
2018-04-13T13:19:32.229Z,49.60
2018-04-13T13:21:58.417Z,49.50
2018-04-13T13:24:24.954Z,48.10
2018-04-13T13:26:51.128Z,48.50
2018-04-13T13:29:17.300Z,48.50
2018-04-13T13:31:44.245Z,48.00
2018-04-13T13:34:11.162Z,49.20
2018-04-13T13:36:37.332Z,49.10
2018-04-13T13:39:05.158Z,48.50
2018-04-13T13:41:31.326Z,48.30
2018-04-13T13:43:58.277Z,48.30
2018-04-13T13:46:25.225Z,48.60
2018-04-13T13:48:52.154Z,48.80
2018-04-13T13:51:18.333Z,48.80
2018-04-13T13:53:44.513Z,49.00
2018-04-13T13:56:10.733Z,48.70
2018-04-13T13:58:36.918Z,48.80
2018-04-13T14:01:03.129Z,49.40
2018-04-13T14:03:29.306Z,49.80
2018-04-13T14:05:55.487Z,49.00
2018-04-13T14:08:21.706Z,49.40
2018-04-13T14:10:47.894Z,49.90
2018-04-13T14:13:14.081Z,49.20
2018-04-13T14:15:40.257Z,49.10
2018-04-13T14:18:06.447Z,49.20
2018-04-13T14:20:32.656Z,49.10
2018-04-13T14:22:58.834Z,49.80
2018-04-13T14:25:26.013Z,49.90
2018-04-13T14:27:52.206Z,49.90
2018-04-13T14:30:18.453Z,51.40
2018-04-13T14:32:44.599Z,50.50
2018-04-13T14:35:11.507Z,50.80
2018-04-13T14:37:37.668Z,51.40
2018-04-13T14:40:04.714Z,50.10
2018-04-13T14:42:31.629Z,50.70
2018-04-13T14:44:57.825Z,50.00
2018-04-13T14:47:24.014Z,50.20
2018-04-13T14:49:50.933Z,50.40
2018-04-13T14:52:17.111Z,50.40
2018-04-13T14:54:44.038Z,49.80
2018-04-13T14:57:10.234Z,49.70
2018-04-13T14:59:36.413Z,50.10
2018-04-13T15:02:02.613Z,50.60
2018-04-13T15:04:28.830Z,51.10
2018-04-13T15:06:55.024Z,50.50
2018-04-13T15:09:21.962Z,50.90
2018-04-13T15:11:48.139Z,50.80
2018-04-13T15:14:14.325Z,51.40
2018-04-13T15:16:41.544Z,51.30
2018-04-13T15:19:07.720Z,51.60
2018-04-13T15:21:33.919Z,51.60
2018-04-13T15:24:00.076Z,52.50
2018-04-13T15:26:26.253Z,52.30
2018-04-13T15:28:52.433Z,52.40
2018-04-13T15:31:18.597Z,52.20
2018-04-13T15:33:45.539Z,52.40
2018-04-13T15:36:12.452Z,52.70
2018-04-13T15:38:38.628Z,52.70
2018-04-13T15:41:05.566Z,53.60
2018-04-13T15:43:32.476Z,52.70
2018-04-13T15:45:58.679Z,52.60
2018-04-13T15:48:24.853Z,52.90
2018-04-13T15:50:51.042Z,53.60
2018-04-13T15:53:17.229Z,52.20
2018-04-13T15:55:43.417Z,53.00
2018-04-13T15:58:09.605Z,52.50
2018-04-13T16:00:35.776Z,52.30
2018-04-13T16:03:01.949Z,53.10
2018-04-13T16:05:28.136Z,53.50
2018-04-13T16:07:54.313Z,52.50
2018-04-13T16:10:20.528Z,53.20
2018-04-13T16:12:46.690Z,53.10
2018-04-13T16:15:12.861Z,53.20
2018-04-13T16:17:39.079Z,53.40
2018-04-13T16:20:06.014Z,53.00
2018-04-13T16:22:32.214Z,52.80
2018-04-13T16:24:58.372Z,53.40
2018-04-13T16:27:24.558Z,53.20
2018-04-13T16:29:50.763Z,53.70
2018-04-13T16:32:17.690Z,53.80
2018-04-13T16:34:43.872Z,53.80
2018-04-13T16:37:10.050Z,53.50
2018-04-13T16:39:36.236Z,53.40
2018-04-13T16:42:02.426Z,53.80
2018-04-13T16:44:28.625Z,53.70
2018-04-13T16:46:54.788Z,53.80
2018-04-13T16:49:20.967Z,53.70
2018-04-13T16:51:47.141Z,53.60
2018-04-13T16:54:13.315Z,53.80
2018-04-13T16:56:40.245Z,54.50
2018-04-13T16:59:07.171Z,53.70
2018-04-13T17:01:33.357Z,54.20
2018-04-13T17:04:00.292Z,54.10
2018-04-13T17:06:27.214Z,54.00
2018-04-13T17:08:53.392Z,54.00
2018-04-13T17:11:19.617Z,54.00
2018-04-13T17:13:45.785Z,53.70
2018-04-13T17:16:11.962Z,54.00
2018-04-13T17:18:38.906Z,54.30
2018-04-13T17:21:07.511Z,53.50
2018-04-13T17:23:34.067Z,53.70
2018-04-13T17:26:00.250Z,53.70
2018-04-13T17:28:26.633Z,53.30
2018-04-13T17:30:52.822Z,53.00
2018-04-13T17:33:19.283Z,53.80
2018-04-13T17:35:45.528Z,53.30
2018-04-13T17:38:12.445Z,53.80
2018-04-13T17:40:38.628Z,53.70
2018-04-13T17:43:04.861Z,53.40
2018-04-13T17:45:31.748Z,53.00
2018-04-13T17:47:58.192Z,52.90
2018-04-13T17:50:25.116Z,51.90
2018-04-13T17:52:51.284Z,51.70
2018-04-13T17:55:17.481Z,51.60
2018-04-13T17:57:43.648Z,52.10
2018-04-13T18:00:10.134Z,51.70
2018-04-13T18:02:36.315Z,51.80
2018-04-13T18:05:02.501Z,51.60
2018-04-13T18:07:28.675Z,52.00
2018-04-13T18:09:54.837Z,52.00
2018-04-13T18:12:21.775Z,51.10
2018-04-13T18:14:48.707Z,51.80
2018-04-13T18:17:14.889Z,51.10
2018-04-13T18:19:41.121Z,51.20
2018-04-13T18:22:07.326Z,52.00
2018-04-13T18:24:34.276Z,51.60
2018-04-13T18:27:01.181Z,51.50
2018-04-13T18:29:28.000Z,51.40
2018-04-13T18:31:54.177Z,51.40
2018-04-13T18:34:20.348Z,51.00
2018-04-13T18:36:47.297Z,50.80
2018-04-13T18:39:14.217Z,50.70
2018-04-13T18:41:40.414Z,50.70
2018-04-13T18:44:06.614Z,50.30
2018-04-13T18:46:33.538Z,50.50
2018-04-13T18:48:59.753Z,50.50
2018-04-13T18:51:26.740Z,50.00
2018-04-13T18:53:53.645Z,50.10
2018-04-13T18:56:19.819Z,50.10
2018-04-13T18:58:46.742Z,49.80
2018-04-13T19:01:12.928Z,50.60
2018-04-13T19:03:39.087Z,50.70
2018-04-13T19:06:05.253Z,50.90
2018-04-13T19:08:31.425Z,50.70
2018-04-13T19:10:57.590Z,50.60
2018-04-13T19:13:23.816Z,50.40
2018-04-13T19:15:50.002Z,50.30
2018-04-13T19:18:16.917Z,50.10
2018-04-13T19:20:43.110Z,50.00
2018-04-13T19:23:09.308Z,50.20
2018-04-13T19:25:36.261Z,50.10
2018-04-13T19:28:03.170Z,50.00
2018-04-13T19:30:30.220Z,49.90
2018-04-13T19:32:56.398Z,50.30
2018-04-13T19:35:23.305Z,50.50
2018-04-13T19:37:49.517Z,50.40
2018-04-13T19:40:15.712Z,50.40
2018-04-13T19:42:42.629Z,50.40
2018-04-13T19:45:08.820Z,50.40
2018-04-13T19:47:34.994Z,50.10
2018-04-13T19:50:01.213Z,49.90
2018-04-13T19:52:27.393Z,49.90
2018-04-13T19:54:54.296Z,49.60
2018-04-13T19:57:20.501Z,49.50
2018-04-13T19:59:46.662Z,49.50
2018-04-13T20:02:12.855Z,49.80
2018-04-13T20:04:39.728Z,49.40
2018-04-13T20:07:05.922Z,49.10
2018-04-13T20:09:32.862Z,49.50
2018-04-13T20:11:59.774Z,48.80
2018-04-13T20:14:25.973Z,49.30
2018-04-13T20:16:52.172Z,49.40
2018-04-13T20:19:18.354Z,49.60
2018-04-13T20:21:44.549Z,49.70
2018-04-13T20:24:11.452Z,50.00
2018-04-13T20:26:37.650Z,49.60
2018-04-13T20:29:03.851Z,49.70
2018-04-13T20:31:30.056Z,49.90
2018-04-13T20:33:56.310Z,50.00
2018-04-13T20:36:22.494Z,50.10
2018-04-13T20:38:48.689Z,50.10
2018-04-13T20:41:15.623Z,50.40
2018-04-13T20:43:42.582Z,51.30
2018-04-13T20:46:08.769Z,50.50
2018-04-13T20:48:34.964Z,50.50
2018-04-13T20:51:02.137Z,50.30
2018-04-13T20:53:28.352Z,50.30
2018-04-13T20:55:55.289Z,50.70
2018-04-13T20:58:21.490Z,50.60
2018-04-13T21:00:47.693Z,51.60
2018-04-13T21:03:13.881Z,50.90
2018-04-13T21:05:40.054Z,51.00
2018-04-13T21:08:06.229Z,51.10
2018-04-13T21:10:32.418Z,51.10
2018-04-13T21:12:59.334Z,51.70
2018-04-13T21:15:25.530Z,51.60
2018-04-13T21:17:51.708Z,51.90
2018-04-13T21:20:18.621Z,52.10
2018-04-13T21:22:44.805Z,51.90
2018-04-13T21:25:11.713Z,52.00
2018-04-13T21:27:37.913Z,52.00
2018-04-13T21:30:04.086Z,52.20
2018-04-13T21:32:31.031Z,52.80
2018-04-13T21:34:57.212Z,52.80
2018-04-13T21:37:23.402Z,52.70
2018-04-13T21:39:49.585Z,52.70
2018-04-13T21:42:15.774Z,52.90
2018-04-13T21:44:41.950Z,52.90
2018-04-13T21:47:08.142Z,53.20
2018-04-13T21:49:34.358Z,53.40
2018-04-13T21:52:00.545Z,53.20
2018-04-13T21:54:26.717Z,53.40
2018-04-13T21:56:52.956Z,53.40
2018-04-13T21:59:19.124Z,53.60
2018-04-13T22:01:46.062Z,53.90
2018-04-13T22:04:13.006Z,53.80
2018-04-13T22:06:39.288Z,53.70
2018-04-13T22:09:05.477Z,53.80
2018-04-13T22:11:31.661Z,54.10
2018-04-13T22:14:10.262Z,54.20
2018-04-13T22:16:36.440Z,54.40
2018-04-13T22:19:02.631Z,54.40
2018-04-13T22:21:28.837Z,54.60
2018-04-13T22:23:55.748Z,54.90
2018-04-13T22:26:21.939Z,54.80
2018-04-13T22:28:48.155Z,55.60
2018-04-13T22:31:15.077Z,55.20
2018-04-13T22:33:42.926Z,55.40
2018-04-13T22:36:09.102Z,55.30
2018-04-13T22:38:36.013Z,55.70
2018-04-13T22:41:02.195Z,55.50
2018-04-13T22:43:28.356Z,56.20
2018-04-13T22:45:54.547Z,56.00
2018-04-13T22:48:21.457Z,56.40
2018-04-13T22:50:47.628Z,56.30
2018-04-13T22:53:14.553Z,56.40
2018-04-13T22:55:40.724Z,56.40
2018-04-13T22:58:07.674Z,56.90
2018-04-13T23:00:33.847Z,56.80
2018-04-13T23:03:00.025Z,56.90
2018-04-13T23:05:26.981Z,57.00
2018-04-13T23:07:53.918Z,57.20
2018-04-13T23:10:20.857Z,57.50
2018-04-13T23:12:47.061Z,57.40
2018-04-13T23:15:13.247Z,58.00
2018-04-13T23:17:40.170Z,57.80
2018-04-13T23:20:06.347Z,57.70
2018-04-13T23:22:36.573Z,57.90
2018-04-13T23:25:02.773Z,58.00
2018-04-13T23:27:28.953Z,58.20
2018-04-13T23:29:55.193Z,58.20
2018-04-13T23:32:21.361Z,58.30
2018-04-13T23:34:47.874Z,58.60
2018-04-13T23:37:14.055Z,58.70
2018-04-13T23:39:40.259Z,58.90
2018-04-13T23:42:06.437Z,59.00
2018-04-13T23:44:32.598Z,59.00
2018-04-13T23:46:58.997Z,59.20
2018-04-13T23:49:25.900Z,59.40
2018-04-13T23:51:52.069Z,59.30
2018-04-13T23:54:19.000Z,59.70
2018-04-13T23:56:45.176Z,59.70
2018-04-13T23:59:11.425Z,59.80
